createdAt,value
2023-05-05T00:01:09.035Z,101545.34
2023-05-05T00:03:35.814Z,101544.81
2023-05-05T00:06:03.158Z,101545.13
2023-05-05T00:08:30.030Z,101548.94
2023-05-05T00:10:57.449Z,101550.84
2023-05-05T00:13:24.407Z,101550.88
2023-05-05T00:15:52.481Z,101551.41
2023-05-05T00:18:19.608Z,101556.84
2023-05-05T00:20:47.435Z,101549.28
2023-05-05T00:23:19.669Z,101546.31
2023-05-05T00:25:46.252Z,101541.69
2023-05-05T00:28:14.368Z,101541.69
2023-05-05T00:30:41.413Z,101536.59
2023-05-05T00:33:07.889Z,101532.84
2023-05-05T00:35:34.619Z,101529.34
2023-05-05T00:38:01.002Z,101526.66
2023-05-05T00:40:27.724Z,101535.53
2023-05-05T00:42:54.433Z,101538.75
2023-05-05T00:45:20.869Z,101548.19
2023-05-05T00:48:06.577Z,101555.47
2023-05-05T00:50:33.130Z,101562.47
2023-05-05T00:53:04.915Z,101564.34
2023-05-05T00:55:32.238Z,101564.38
2023-05-05T00:58:00.384Z,101554.41
2023-05-05T01:00:27.871Z,101555.22
2023-05-05T01:02:54.512Z,101551.69
2023-05-05T01:05:23.153Z,101543.06
2023-05-05T01:08:18.434Z,101550.31
2023-05-05T01:11:04.065Z,101547.91
2023-05-05T01:13:39.509Z,101541.16
2023-05-05T01:16:18.157Z,101540.91
2023-05-05T01:18:47.764Z,101543.84
2023-05-05T01:21:23.526Z,101547.63
2023-05-05T01:24:08.739Z,101556.50
2023-05-05T01:26:55.206Z,101550.50
2023-05-05T01:29:44.918Z,101557.75
2023-05-05T01:32:14.373Z,101560.16
2023-05-05T01:34:49.795Z,101565.25
2023-05-05T01:37:22.812Z,101570.09
2023-05-05T01:39:54.334Z,101570.34
2023-05-05T01:42:22.320Z,101572.78
2023-05-05T01:44:50.828Z,101566.03
2023-05-05T01:47:20.839Z,101569.78
2023-05-05T01:49:48.680Z,101565.72
2023-05-05T01:52:16.170Z,101575.97
2023-05-05T01:54:43.983Z,101577.28
2023-05-05T01:57:11.691Z,101587.03
2023-05-05T01:59:39.719Z,101594.31
2023-05-05T02:02:08.274Z,101599.16
2023-05-05T02:04:37.305Z,101602.13
2023-05-05T02:07:05.012Z,101598.59
2023-05-05T02:09:32.716Z,101579.41
2023-05-05T02:12:00.534Z,101574.53
2023-05-05T02:14:29.483Z,101553.72
2023-05-05T02:16:58.058Z,101544.03
2023-05-05T02:19:34.287Z,101537.03
2023-05-05T02:22:00.873Z,101537.03
2023-05-05T02:24:27.340Z,101552.16
2023-05-05T02:26:56.459Z,101563.78
2023-05-05T02:29:29.517Z,101566.28
2023-05-05T02:32:02.102Z,101562.78
2023-05-05T02:34:34.882Z,101563.88
2023-05-05T02:37:05.232Z,101554.75
2023-05-05T02:39:35.361Z,101567.16
2023-05-05T02:42:03.913Z,101561.25
2023-05-05T02:44:32.895Z,101567.72
2023-05-05T02:46:59.383Z,101559.38
2023-05-05T02:49:25.885Z,101563.16
2023-05-05T02:51:52.455Z,101556.19
2023-05-05T02:54:19.370Z,101552.19
2023-05-05T02:56:54.302Z,101557.88
2023-05-05T02:59:50.840Z,101555.22
2023-05-05T03:02:17.213Z,101558.50
2023-05-05T03:04:50.706Z,101556.91
2023-05-05T03:07:33.399Z,101566.34
2023-05-05T03:10:13.823Z,101561.78
2023-05-05T03:12:46.767Z,101574.19
2023-05-05T03:15:14.213Z,101565.28
2023-05-05T03:17:43.022Z,101574.97
2023-05-05T03:20:11.128Z,101573.06
2023-05-05T03:22:38.122Z,101578.47
2023-05-05T03:25:05.042Z,101579.81
2023-05-05T03:27:31.648Z,101584.41
2023-05-05T03:29:58.044Z,101590.59
2023-05-05T03:32:24.470Z,101595.69
2023-05-05T03:34:50.967Z,101601.06
2023-05-05T03:37:17.304Z,101601.59
2023-05-05T03:39:43.645Z,101589.78
2023-05-05T03:42:10.072Z,101577.63
2023-05-05T03:44:36.578Z,101570.91
2023-05-05T03:47:02.990Z,101574.13
2023-05-05T03:49:29.425Z,101584.63
2023-05-05T03:51:56.195Z,101587.06
2023-05-05T03:54:22.646Z,101584.91
2023-05-05T03:56:49.096Z,101610.19
2023-05-05T03:59:15.920Z,101619.84
2023-05-05T04:01:42.244Z,101617.16
2023-05-05T04:04:09.452Z,101606.16
2023-05-05T04:06:35.957Z,101617.97
2023-05-05T04:09:03.186Z,101625.81
2023-05-05T04:11:29.599Z,101629.56
2023-05-05T04:13:56.160Z,101631.72
2023-05-05T04:16:22.834Z,101641.69
2023-05-05T04:18:49.527Z,101647.31
2023-05-05T04:21:16.082Z,101648.13
2023-05-05T04:23:42.523Z,101650.25
2023-05-05T04:26:08.941Z,101652.94
2023-05-05T04:28:35.344Z,101658.84
2023-05-05T04:31:04.780Z,101655.09
2023-05-05T04:33:31.261Z,101663.16
2023-05-05T04:35:58.278Z,101669.38
2023-05-05T04:38:24.873Z,101668.28
2023-05-05T04:40:51.310Z,101675.81
2023-05-05T04:43:17.719Z,101674.19
2023-05-05T04:45:54.189Z,101673.91
2023-05-05T04:48:20.838Z,101674.75
2023-05-05T04:50:47.398Z,101675.53
2023-05-05T04:53:13.854Z,101682.03
2023-05-05T04:55:40.328Z,101679.34
2023-05-05T04:58:06.669Z,101683.38
2023-05-05T05:00:33.175Z,101688.50
2023-05-05T05:02:59.633Z,101687.69
2023-05-05T05:05:26.094Z,101689.31
2023-05-05T05:07:52.574Z,101692.53
2023-05-05T05:10:19.180Z,101700.09
2023-05-05T05:12:47.914Z,101699.56
2023-05-05T05:15:14.563Z,101700.09
2023-05-05T05:17:41.030Z,101695.56
2023-05-05T05:20:08.231Z,101693.91
2023-05-05T05:22:38.093Z,101695.09
2023-05-05T05:25:04.849Z,101689.50
2023-05-05T05:27:31.376Z,101691.66
2023-05-05T05:29:59.074Z,101702.44
2023-05-05T05:32:25.460Z,101698.91
2023-05-05T05:34:52.073Z,101703.34
2023-05-05T05:37:18.506Z,101706.97
2023-05-05T05:39:51.993Z,101697.94
2023-05-05T05:42:18.569Z,101699.88
2023-05-05T05:44:45.210Z,101706.28
2023-05-05T05:47:11.802Z,101716.50
2023-05-05T05:49:38.217Z,101720.72
2023-05-05T05:52:04.706Z,101720.31
2023-05-05T05:54:32.636Z,101712.94
2023-05-05T05:56:59.128Z,101718.09
2023-05-05T05:59:25.723Z,101713.72
2023-05-05T06:01:52.116Z,101711.31
2023-05-05T06:04:18.559Z,101715.41
2023-05-05T06:06:44.968Z,101709.09
2023-05-05T06:09:11.452Z,101710.06
2023-05-05T06:11:37.786Z,101708.63
2023-05-05T06:14:04.206Z,101705.19
2023-05-05T06:16:30.804Z,101700.91
2023-05-05T06:18:57.285Z,101698.84
2023-05-05T06:21:23.903Z,101699.19
2023-05-05T06:23:50.904Z,101702.50
2023-05-05T06:26:17.351Z,101712.66
2023-05-05T06:28:43.739Z,101709.22
2023-05-05T06:31:10.255Z,101718.84
2023-05-05T06:33:37.790Z,101729.09
2023-05-05T06:36:04.466Z,101725.50
2023-05-05T06:38:31.018Z,101726.78
2023-05-05T06:40:58.531Z,101728.41
2023-05-05T06:43:25.216Z,101726.56
2023-05-05T06:45:51.949Z,101728.28
2023-05-05T06:48:18.485Z,101724.97
2023-05-05T06:50:45.099Z,101735.31
2023-05-05T06:53:11.641Z,101740.47
2023-05-05T06:55:38.155Z,101738.16
2023-05-05T06:58:04.525Z,101735.13
2023-05-05T07:00:31.023Z,101739.19
2023-05-05T07:02:57.466Z,101739.97
2023-05-05T07:05:23.998Z,101745.69
2023-05-05T07:07:54.794Z,101748.63
2023-05-05T07:10:22.636Z,101750.03
2023-05-05T07:12:49.936Z,101747.94
2023-05-05T07:15:26.608Z,101749.22
2023-05-05T07:17:54.948Z,101749.03
2023-05-05T07:20:21.464Z,101753.06
2023-05-05T07:22:47.878Z,101757.28
2023-05-05T07:25:14.389Z,101751.03
2023-05-05T07:27:40.968Z,101757.28
2023-05-05T07:30:11.952Z,101754.88
2023-05-05T07:32:40.791Z,101754.47
2023-05-05T07:35:07.409Z,101760.69
2023-05-05T07:37:34.096Z,101762.38
2023-05-05T07:40:00.515Z,101761.19
2023-05-05T07:42:26.949Z,101761.47
2023-05-05T07:44:53.352Z,101754.78
2023-05-05T07:47:19.869Z,101756.03
2023-05-05T07:49:46.576Z,101750.91
2023-05-05T07:52:13.106Z,101765.97
2023-05-05T07:54:39.600Z,101760.56
2023-05-05T07:57:06.092Z,101764.50
2023-05-05T07:59:34.722Z,101765.69
2023-05-05T08:02:01.444Z,101758.72
2023-05-05T08:04:27.982Z,101747.31
2023-05-05T08:06:54.767Z,101759.75
2023-05-05T08:09:21.403Z,101755.78
2023-05-05T08:11:48.011Z,101756.03
2023-05-05T08:14:15.168Z,101766.16
2023-05-05T08:16:41.730Z,101763.47
2023-05-05T08:19:21.198Z,101763.75
2023-05-05T08:21:54.482Z,101768.38
2023-05-05T08:24:20.840Z,101760.66
2023-05-05T08:26:47.277Z,101761.47
2023-05-05T08:29:13.642Z,101759.88
2023-05-05T08:31:40.149Z,101762.59
2023-05-05T08:34:06.891Z,101760.47
2023-05-05T08:36:33.716Z,101757.78
2023-05-05T08:39:00.712Z,101765.66
2023-05-05T08:41:27.999Z,101782.00
2023-05-05T08:43:54.611Z,101771.53
2023-05-05T08:46:22.067Z,101783.22
2023-05-05T08:48:48.681Z,101781.09
2023-05-05T08:51:19.918Z,101775.63
2023-05-05T08:53:55.854Z,101776.16
2023-05-05T08:56:25.791Z,101780.19
2023-05-05T08:58:52.637Z,101783.38
2023-05-05T09:01:19.348Z,101780.38
2023-05-05T09:03:46.228Z,101788.84
2023-05-05T09:06:13.139Z,101792.94
2023-05-05T09:08:40.322Z,101788.66
2023-05-05T09:11:06.907Z,101777.78
2023-05-05T09:13:33.646Z,101778.72
2023-05-05T09:16:00.023Z,101776.41
2023-05-05T09:18:26.845Z,101783.94
2023-05-05T09:20:53.427Z,101783.94
2023-05-05T09:23:20.963Z,101771.13
2023-05-05T09:26:02.013Z,101775.19
2023-05-05T09:28:28.555Z,101773.75
2023-05-05T09:30:55.041Z,101781.13
2023-05-05T09:33:31.563Z,101783.81
2023-05-05T09:35:58.745Z,101784.75
2023-05-05T09:38:25.256Z,101780.25
2023-05-05T09:40:53.193Z,101779.09
2023-05-05T09:43:21.899Z,101780.97
2023-05-05T09:45:49.515Z,101781.19
2023-05-05T09:48:30.546Z,101772.19
2023-05-05T09:50:58.338Z,101773.16
2023-05-05T09:53:26.674Z,101767.91
2023-05-05T09:55:58.068Z,101773.50
2023-05-05T09:58:26.268Z,101763.31
2023-05-05T10:00:53.894Z,101771.91
2023-05-05T10:03:20.892Z,101770.13
2023-05-05T10:05:56.435Z,101774.03
2023-05-05T10:08:25.905Z,101776.66
2023-05-05T10:10:52.513Z,101776.31
2023-05-05T10:13:21.391Z,101794.06
2023-05-05T10:15:51.356Z,101807.59
2023-05-05T10:18:21.492Z,101817.06
2023-05-05T10:20:52.027Z,101831.38
2023-05-05T10:23:20.435Z,101831.63
2023-05-05T10:25:54.450Z,101817.16
2023-05-05T10:28:31.787Z,101813.28
2023-05-05T10:31:00.535Z,101825.97
2023-05-05T10:33:36.391Z,101817.66
2023-05-05T10:36:06.539Z,101820.16
2023-05-05T10:38:34.121Z,101823.22
2023-05-05T10:41:02.139Z,101811.34
2023-05-05T10:43:30.827Z,101810.78
2023-05-05T10:45:58.934Z,101812.72
2023-05-05T10:48:32.901Z,101822.59
2023-05-05T10:51:08.266Z,101820.56
2023-05-05T10:54:27.612Z,101828.50
2023-05-05T10:56:54.535Z,101820.69
2023-05-05T10:59:36.344Z,101829.63
2023-05-05T11:02:28.951Z,101837.47
2023-05-05T11:05:21.412Z,101847.19
2023-05-05T11:07:50.536Z,101854.72
2023-05-05T11:10:20.783Z,101853.13
2023-05-05T11:13:00.112Z,101851.50
2023-05-05T11:15:26.661Z,101849.06
2023-05-05T11:17:54.998Z,101843.66
2023-05-05T11:20:37.119Z,101852.84
2023-05-05T11:23:03.695Z,101847.19
2023-05-05T11:25:43.220Z,101842.59
2023-05-05T11:28:18.699Z,101836.94
2023-05-05T11:30:58.094Z,101843.41
2023-05-05T11:33:39.907Z,101849.59
2023-05-05T11:36:11.739Z,101861.75
2023-05-05T11:39:05.456Z,101863.91
2023-05-05T11:42:26.103Z,101864.69
2023-05-05T11:44:53.394Z,101869.84
2023-05-05T11:47:19.924Z,101865.78
2023-05-05T11:49:46.462Z,101864.16
2023-05-05T11:52:13.934Z,101861.72
2023-05-05T11:54:48.616Z,101859.56
2023-05-05T11:57:21.103Z,101861.44
2023-05-05T11:59:53.435Z,101863.59
2023-05-05T12:02:20.676Z,101861.94
2023-05-05T12:04:47.791Z,101854.94
2023-05-05T12:07:18.386Z,101856.31
2023-05-05T12:09:46.244Z,101860.34
2023-05-05T12:12:13.710Z,101847.94
2023-05-05T12:14:47.339Z,101847.69
2023-05-05T12:17:14.141Z,101849.56
2023-05-05T12:19:54.297Z,101853.06
2023-05-05T12:22:27.420Z,101841.25
2023-05-05T12:25:04.037Z,101857.44
2023-05-05T12:27:30.666Z,101853.66
2023-05-05T12:30:10.274Z,101861.75
2023-05-05T12:32:36.936Z,101855.81
2023-05-05T12:35:03.638Z,101851.22
2023-05-05T12:37:30.295Z,101856.09
2023-05-05T12:39:56.848Z,101852.84
2023-05-05T12:42:23.411Z,101849.34
2023-05-05T12:44:50.087Z,101846.66
2023-05-05T12:47:32.851Z,101845.81
2023-05-05T12:50:00.327Z,101846.38
2023-05-05T12:52:45.676Z,101840.72
2023-05-05T12:55:12.923Z,101845.84
2023-05-05T12:57:58.039Z,101839.88
2023-05-05T13:00:25.213Z,101835.56
2023-05-05T13:02:52.947Z,101834.75
2023-05-05T13:05:32.742Z,101837.47
2023-05-05T13:07:59.262Z,101841.00
2023-05-05T13:10:25.711Z,101831.25
2023-05-05T13:12:55.322Z,101829.13
2023-05-05T13:15:21.794Z,101831.00
2023-05-05T13:17:48.273Z,101832.06
2023-05-05T13:20:15.430Z,101845.84
2023-05-05T13:22:41.811Z,101839.34
2023-05-05T13:25:08.541Z,101837.19
2023-05-05T13:27:35.226Z,101842.84
2023-05-05T13:30:01.806Z,101847.69
2023-05-05T13:32:28.233Z,101856.03
2023-05-05T13:34:54.599Z,101855.22
2023-05-05T13:37:21.318Z,101863.59
2023-05-05T13:39:47.689Z,101860.91
2023-05-05T13:42:14.088Z,101866.00
2023-05-05T13:44:40.488Z,101864.66
2023-05-05T13:47:07.371Z,101870.84
2023-05-05T13:49:35.036Z,101869.81
2023-05-05T13:52:01.487Z,101865.22
2023-05-05T13:54:28.035Z,101866.53
2023-05-05T13:56:54.429Z,101862.22
2023-05-05T13:59:21.755Z,101860.63
2023-05-05T14:01:48.829Z,101867.09
2023-05-05T14:04:15.445Z,101865.50
2023-05-05T14:06:41.969Z,101859.56
2023-05-05T14:09:08.383Z,101865.22
2023-05-05T14:11:35.002Z,101854.19
2023-05-05T14:14:01.631Z,101844.72
2023-05-05T14:16:28.095Z,101849.59
2023-05-05T14:18:54.548Z,101836.38
2023-05-05T14:21:21.004Z,101840.97
2023-05-05T14:23:47.356Z,101828.03
2023-05-05T14:26:13.812Z,101815.34
2023-05-05T14:28:40.265Z,101816.16
2023-05-05T14:31:06.808Z,101810.50
2023-05-05T14:33:33.246Z,101812.41
2023-05-05T14:36:00.048Z,101814.56
2023-05-05T14:38:26.482Z,101796.75
2023-05-05T14:40:53.069Z,101794.88
2023-05-05T14:43:20.649Z,101790.53
2023-05-05T14:45:47.082Z,101773.84
2023-05-05T14:48:13.559Z,101763.31
2023-05-05T14:50:42.298Z,101762.78
2023-05-05T14:53:08.863Z,101773.53
2023-05-05T14:55:35.397Z,101785.06
2023-05-05T14:58:01.757Z,101808.25
2023-05-05T15:00:28.565Z,101816.88
2023-05-05T15:02:55.088Z,101811.97
2023-05-05T15:05:21.552Z,101814.38
2023-05-05T15:07:48.035Z,101804.47
2023-05-05T15:10:15.018Z,101809.03
2023-05-05T15:12:42.713Z,101816.34
2023-05-05T15:15:09.934Z,101817.72
2023-05-05T15:17:38.610Z,101809.66
2023-05-05T15:20:06.709Z,101809.13
2023-05-05T15:22:33.163Z,101802.09
2023-05-05T15:24:59.714Z,101793.75
2023-05-05T15:27:26.365Z,101801.03
2023-05-05T15:29:52.972Z,101799.66
2023-05-05T15:32:19.325Z,101799.91
2023-05-05T15:34:46.796Z,101795.28
2023-05-05T15:37:14.113Z,101790.13
2023-05-05T15:39:40.518Z,101786.84
2023-05-05T15:42:07.379Z,101786.88
2023-05-05T15:44:33.749Z,101781.34
2023-05-05T15:47:00.236Z,101781.66
2023-05-05T15:49:26.643Z,101777.59
2023-05-05T15:51:52.975Z,101780.38
2023-05-05T15:54:19.412Z,101777.41
2023-05-05T15:56:45.906Z,101775.72
2023-05-05T15:59:12.326Z,101773.88
2023-05-05T16:01:39.034Z,101775.50
2023-05-05T16:04:05.491Z,101782.22
2023-05-05T16:06:32.049Z,101783.44
2023-05-05T16:08:58.682Z,101770.97
2023-05-05T16:11:26.526Z,101773.66
2023-05-05T16:13:53.262Z,101776.91
2023-05-05T16:16:19.685Z,101771.66
2023-05-05T16:18:46.368Z,101778.50
2023-05-05T16:21:13.157Z,101767.91
2023-05-05T16:23:39.852Z,101769.94
2023-05-05T16:26:06.238Z,101766.84
2023-05-05T16:28:34.153Z,101762.53
2023-05-05T16:31:02.300Z,101766.00
2023-05-05T16:33:29.100Z,101764.91
2023-05-05T16:35:55.942Z,101752.41
2023-05-05T16:38:22.670Z,101751.84
2023-05-05T16:40:49.027Z,101755.97
2023-05-05T16:43:15.621Z,101753.78
2023-05-05T16:45:42.099Z,101754.50
2023-05-05T16:48:09.169Z,101760.50
2023-05-05T16:50:35.944Z,101753.41
2023-05-05T16:53:02.335Z,101746.00
2023-05-05T16:55:28.815Z,101745.91
2023-05-05T16:57:55.312Z,101745.56
2023-05-05T17:00:21.824Z,101751.03
2023-05-05T17:02:48.374Z,101759.19
2023-05-05T17:05:15.078Z,101753.97
2023-05-05T17:07:41.523Z,101756.47
2023-05-05T17:10:08.579Z,101756.66
2023-05-05T17:12:35.049Z,101753.25
2023-05-05T17:15:02.047Z,101758.69
2023-05-05T17:17:28.604Z,101767.44
2023-05-05T17:19:54.981Z,101761.00
2023-05-05T17:22:21.764Z,101756.25
2023-05-05T17:24:48.221Z,101756.44
2023-05-05T17:27:14.679Z,101758.06
2023-05-05T17:29:41.309Z,101766.22
2023-05-05T17:32:10.556Z,101762.19
2023-05-05T17:34:37.356Z,101766.13
2023-05-05T17:37:03.732Z,101765.81
2023-05-05T17:39:30.975Z,101753.84
2023-05-05T17:41:57.431Z,101754.78
2023-05-05T17:44:23.827Z,101761.56
2023-05-05T17:46:50.570Z,101762.25
2023-05-05T17:49:16.919Z,101765.06
2023-05-05T17:51:43.314Z,101765.66
2023-05-05T17:54:09.786Z,101765.97
2023-05-05T17:56:36.730Z,101772.56
2023-05-05T17:59:03.201Z,101776.00
2023-05-05T18:01:29.637Z,101780.63
2023-05-05T18:03:56.165Z,101783.13
2023-05-05T18:06:22.567Z,101780.56
2023-05-05T18:08:49.297Z,101775.28
2023-05-05T18:11:15.745Z,101779.81
2023-05-05T18:13:43.218Z,101777.66
2023-05-05T18:16:09.733Z,101779.78
2023-05-05T18:18:36.317Z,101781.09
2023-05-05T18:21:02.739Z,101782.06
2023-05-05T18:23:29.241Z,101783.22
2023-05-05T18:25:55.698Z,101777.06
2023-05-05T18:28:22.102Z,101772.78
2023-05-05T18:30:48.633Z,101771.63
2023-05-05T18:33:15.013Z,101780.88
2023-05-05T18:35:41.485Z,101790.47
2023-05-05T18:38:07.991Z,101792.16
2023-05-05T18:40:34.514Z,101793.06
2023-05-05T18:43:00.985Z,101788.56
2023-05-05T18:45:27.484Z,101793.63
2023-05-05T18:47:53.992Z,101795.56
2023-05-05T18:50:20.415Z,101793.19
2023-05-05T18:52:46.812Z,101792.19
2023-05-05T18:55:13.235Z,101791.16
2023-05-05T18:57:39.788Z,101793.66
2023-05-05T19:00:06.974Z,101790.78
2023-05-05T19:02:33.478Z,101789.72
2023-05-05T19:04:59.958Z,101795.44
2023-05-05T19:07:34.883Z,101800.09
2023-05-05T19:10:04.376Z,101799.31
2023-05-05T19:12:30.917Z,101793.66
2023-05-05T19:14:57.396Z,101793.47
2023-05-05T19:17:23.999Z,101801.28
2023-05-05T19:19:50.659Z,101797.25
2023-05-05T19:22:21.743Z,101801.28
2023-05-05T19:24:48.143Z,101808.88
2023-05-05T19:27:16.565Z,101806.75
2023-05-05T19:29:43.680Z,101814.81
2023-05-05T19:32:10.293Z,101810.25
2023-05-05T19:34:37.050Z,101816.69
2023-05-05T19:37:03.593Z,101820.47
2023-05-05T19:39:30.135Z,101816.44
2023-05-05T19:41:56.640Z,101822.88
2023-05-05T19:44:23.705Z,101822.63
2023-05-05T19:46:50.391Z,101822.34
2023-05-05T19:49:16.885Z,101822.59
2023-05-05T19:51:43.775Z,101818.25
2023-05-05T19:54:10.400Z,101821.69
2023-05-05T19:56:36.906Z,101827.84
2023-05-05T19:59:05.302Z,101824.84
2023-05-05T20:01:33.076Z,101833.97
2023-05-05T20:03:59.971Z,101826.13
2023-05-05T20:06:26.962Z,101829.53
2023-05-05T20:08:54.754Z,101830.56
2023-05-05T20:11:21.840Z,101829.75
2023-05-05T20:13:49.634Z,101828.66
2023-05-05T20:16:16.379Z,101837.53
2023-05-05T20:18:42.966Z,101834.78
2023-05-05T20:21:09.381Z,101831.81
2023-05-05T20:23:36.489Z,101836.34
2023-05-05T20:26:03.138Z,101841.41
2023-05-05T20:28:31.505Z,101845.16
2023-05-05T20:30:57.986Z,101840.56
2023-05-05T20:33:24.544Z,101851.03
2023-05-05T20:35:50.943Z,101840.22
2023-05-05T20:38:17.396Z,101848.53
2023-05-05T20:40:43.869Z,101854.66
2023-05-05T20:43:10.234Z,101852.50
2023-05-05T20:45:37.107Z,101848.44
2023-05-05T20:48:05.610Z,101843.31
2023-05-05T20:50:32.258Z,101843.59
2023-05-05T20:52:58.826Z,101846.50
2023-05-05T20:55:25.770Z,101840.56
2023-05-05T20:57:52.268Z,101839.16
2023-05-05T21:00:18.697Z,101834.31
2023-05-05T21:02:45.252Z,101830.78
2023-05-05T21:05:11.816Z,101839.06
2023-05-05T21:07:38.369Z,101837.94
2023-05-05T21:10:05.399Z,101835.47
2023-05-05T21:12:33.952Z,101840.22
2023-05-05T21:15:00.532Z,101840.13
2023-05-05T21:17:27.246Z,101841.13
2023-05-05T21:19:54.304Z,101835.72
2023-05-05T21:22:21.462Z,101836.50
2023-05-05T21:24:48.151Z,101826.25
2023-05-05T21:27:14.772Z,101832.16
2023-05-05T21:29:41.184Z,101830.47
2023-05-05T21:32:09.164Z,101830.66
2023-05-05T21:34:36.108Z,101831.41
2023-05-05T21:37:02.882Z,101832.16
2023-05-05T21:39:30.789Z,101837.75
2023-05-05T21:41:57.134Z,101835.84
2023-05-05T21:44:25.448Z,101831.22
2023-05-05T21:46:55.638Z,101834.38
2023-05-05T21:49:22.200Z,101829.78
2023-05-05T21:51:48.789Z,101836.19
2023-05-05T21:54:15.799Z,101832.16
2023-05-05T21:56:42.292Z,101826.47
2023-05-05T21:59:08.817Z,101835.28
2023-05-05T22:01:35.405Z,101830.13
2023-05-05T22:04:02.077Z,101822.25
2023-05-05T22:06:28.584Z,101827.81
2023-05-05T22:08:56.656Z,101826.94
2023-05-05T22:11:23.156Z,101823.84
2023-05-05T22:13:49.505Z,101822.97
2023-05-05T22:16:17.584Z,101825.91
2023-05-05T22:18:44.319Z,101831.25
2023-05-05T22:21:11.021Z,101836.38
2023-05-05T22:23:39.010Z,101825.91
2023-05-05T22:26:05.636Z,101839.00
2023-05-05T22:28:32.206Z,101829.53
2023-05-05T22:30:58.651Z,101830.28
2023-05-05T22:33:25.125Z,101826.50
2023-05-05T22:35:52.081Z,101824.03
2023-05-05T22:38:18.681Z,101828.59
2023-05-05T22:40:45.580Z,101825.41
2023-05-05T22:43:12.188Z,101825.41
2023-05-05T22:45:38.674Z,101833.44
2023-05-05T22:48:05.819Z,101823.28
2023-05-05T22:50:32.381Z,101827.91
2023-05-05T22:52:58.824Z,101821.03
2023-05-05T22:55:25.401Z,101817.84
2023-05-05T22:57:52.633Z,101821.69
2023-05-05T23:00:19.555Z,101819.00
2023-05-05T23:02:46.193Z,101821.16
2023-05-05T23:05:12.869Z,101820.09
2023-05-05T23:07:39.410Z,101812.88
2023-05-05T23:10:06.356Z,101821.72
2023-05-05T23:12:33.045Z,101811.56
2023-05-05T23:14:59.553Z,101818.31
2023-05-05T23:17:26.086Z,101818.88
2023-05-05T23:19:52.643Z,101810.81
2023-05-05T23:22:19.080Z,101816.50
2023-05-05T23:24:45.713Z,101816.03
2023-05-05T23:27:12.764Z,101819.53
2023-05-05T23:29:39.405Z,101814.69
2023-05-05T23:32:06.348Z,101812.84
2023-05-05T23:34:32.786Z,101807.47
2023-05-05T23:36:59.201Z,101807.47
2023-05-05T23:39:25.682Z,101804.81
2023-05-05T23:41:52.061Z,101808.84
2023-05-05T23:44:18.560Z,101811.53
2023-05-05T23:46:44.956Z,101813.34
2023-05-05T23:49:11.427Z,101810.59
2023-05-05T23:51:37.804Z,101810.59
2023-05-05T23:54:04.293Z,101809.50
2023-05-05T23:56:31.027Z,101803.91
2023-05-05T23:58:57.479Z,101794.81
